createdAt,value
2019-03-28T00:01:46.433Z,24.57
2019-03-28T00:04:17.346Z,19.67
2019-03-28T00:06:48.326Z,13.87
2019-03-28T00:09:19.508Z,29.40
2019-03-28T00:11:50.591Z,21.43
2019-03-28T00:14:21.466Z,28.47
2019-03-28T00:16:52.608Z,25.00
2019-03-28T00:19:23.522Z,26.43
2019-03-28T00:21:54.371Z,20.57
2019-03-28T00:24:42.838Z,16.40
2019-03-28T00:27:13.690Z,20.77
2019-03-28T00:29:44.652Z,13.63
2019-03-28T00:32:15.733Z,20.60
2019-03-28T00:34:46.885Z,27.73
2019-03-28T00:37:17.861Z,22.70
2019-03-28T00:39:49.022Z,21.70
2019-03-28T00:42:25.920Z,16.87
2019-03-28T00:44:56.785Z,18.70
2019-03-28T00:47:27.703Z,18.93
2019-03-28T00:49:58.926Z,12.43
2019-03-28T00:52:29.761Z,17.07
2019-03-28T00:55:00.660Z,12.17
2019-03-28T00:57:31.538Z,10.97
2019-03-28T01:00:02.492Z,14.50
2019-03-28T01:02:35.017Z,16.37
2019-03-28T01:05:06.436Z,12.33
2019-03-28T01:07:37.349Z,15.23
2019-03-28T01:10:09.122Z,11.07
2019-03-28T01:12:40.075Z,11.83
2019-03-28T01:15:11.241Z,11.67
2019-03-28T01:17:42.467Z,13.63
2019-03-28T01:20:13.539Z,8.90
2019-03-28T01:22:44.419Z,11.57
2019-03-28T01:25:15.614Z,11.80
2019-03-28T01:27:46.457Z,11.70
2019-03-28T01:30:17.275Z,10.60
2019-03-28T01:32:48.522Z,12.40
2019-03-28T01:35:19.628Z,14.50
2019-03-28T01:37:50.602Z,11.30
2019-03-28T01:40:21.450Z,18.43
2019-03-28T01:42:52.285Z,12.17
2019-03-28T01:45:23.386Z,14.73
2019-03-28T01:47:54.538Z,12.57
2019-03-28T01:50:25.394Z,13.50
2019-03-28T01:52:56.602Z,11.43
2019-03-28T01:55:27.507Z,13.83
2019-03-28T01:57:58.548Z,13.20
2019-03-28T02:00:29.840Z,14.63
2019-03-28T02:03:00.923Z,17.70
2019-03-28T02:05:31.944Z,16.23
2019-03-28T02:08:02.979Z,10.43
2019-03-28T02:10:34.092Z,11.17
2019-03-28T02:13:05.261Z,17.10
2019-03-28T02:15:36.400Z,11.40
2019-03-28T02:18:08.372Z,13.73
2019-03-28T02:20:39.342Z,13.30
2019-03-28T02:23:10.473Z,12.17
2019-03-28T02:25:41.350Z,16.60
2019-03-28T02:28:12.268Z,14.13
2019-03-28T02:30:43.399Z,12.17
2019-03-28T02:33:14.220Z,16.77
2019-03-28T02:35:45.197Z,13.47
2019-03-28T02:38:16.291Z,16.47
2019-03-28T02:40:47.254Z,18.73
2019-03-28T02:43:18.124Z,15.77
2019-03-28T02:45:49.473Z,12.60
2019-03-28T02:48:20.574Z,13.17
2019-03-28T02:50:51.398Z,13.60
2019-03-28T02:53:22.491Z,15.53
2019-03-28T02:55:53.455Z,13.50
2019-03-28T02:58:24.410Z,14.37
2019-03-28T03:00:55.705Z,17.17
2019-03-28T03:03:26.919Z,14.70
2019-03-28T03:05:57.726Z,13.37
2019-03-28T03:08:28.720Z,13.40
2019-03-28T03:10:59.813Z,17.87
2019-03-28T03:13:30.702Z,17.33
2019-03-28T03:16:02.014Z,15.50
2019-03-28T03:18:33.792Z,13.60
2019-03-28T03:21:05.411Z,12.57
2019-03-28T03:23:37.294Z,14.03
2019-03-28T03:26:08.126Z,12.77
2019-03-28T03:28:39.073Z,20.27
2019-03-28T03:31:10.351Z,20.20
2019-03-28T03:33:41.194Z,18.73
2019-03-28T03:36:12.116Z,13.70
2019-03-28T03:38:43.267Z,18.33
2019-03-28T03:41:14.141Z,25.47
2019-03-28T03:43:45.014Z,16.97
2019-03-28T03:46:16.097Z,19.67
2019-03-28T03:48:46.997Z,14.67
2019-03-28T03:51:17.938Z,19.63
2019-03-28T03:53:48.781Z,17.67
2019-03-28T03:56:19.596Z,20.97
2019-03-28T03:58:50.895Z,16.50
2019-03-28T04:01:21.716Z,23.57
2019-03-28T04:03:52.567Z,25.93
2019-03-28T04:06:23.671Z,29.23
2019-03-28T04:08:54.760Z,36.07
2019-03-28T04:11:25.825Z,20.77
2019-03-28T04:13:56.896Z,22.60
2019-03-28T04:16:28.066Z,26.50
2019-03-28T04:18:59.081Z,25.33
2019-03-28T04:21:31.021Z,25.93
2019-03-28T04:24:01.945Z,32.10
2019-03-28T04:26:33.064Z,20.43
2019-03-28T04:29:04.716Z,34.87
2019-03-28T04:31:35.700Z,25.73
2019-03-28T04:34:08.770Z,29.97
2019-03-28T04:36:40.819Z,17.47
2019-03-28T04:39:11.967Z,19.40
2019-03-28T04:41:43.072Z,22.87
2019-03-28T04:44:15.797Z,22.23
2019-03-28T04:46:46.947Z,20.63
2019-03-28T04:49:18.617Z,24.40
2019-03-28T04:51:49.968Z,24.07
2019-03-28T04:54:20.782Z,27.47
2019-03-28T04:56:51.647Z,31.03
2019-03-28T04:59:22.712Z,24.77
2019-03-28T05:02:02.560Z,31.23
2019-03-28T05:04:26.348Z,30.80
2019-03-28T05:06:57.487Z,26.30
2019-03-28T05:09:29.297Z,34.07
2019-03-28T05:12:00.150Z,29.57
2019-03-28T05:14:31.178Z,22.97
2019-03-28T05:17:02.197Z,35.27
2019-03-28T05:19:33.055Z,22.83
2019-03-28T05:22:04.172Z,25.03
2019-03-28T05:24:35.033Z,25.67
2019-03-28T05:27:06.130Z,30.53
2019-03-28T05:29:37.000Z,22.63
2019-03-28T05:32:07.815Z,18.37
2019-03-28T05:34:38.866Z,30.07
2019-03-28T05:37:10.490Z,27.23
2019-03-28T05:39:42.561Z,27.27
2019-03-28T05:42:13.798Z,29.00
2019-03-28T05:44:44.909Z,21.97
2019-03-28T05:47:15.788Z,36.43
2019-03-28T05:49:47.104Z,27.43
2019-03-28T05:52:18.352Z,29.67
2019-03-28T05:54:49.193Z,32.97
2019-03-28T05:57:20.058Z,32.07
2019-03-28T05:59:50.902Z,30.50
2019-03-28T06:02:22.171Z,40.43
2019-03-28T06:04:53.448Z,38.17
2019-03-28T06:07:24.280Z,30.17
2019-03-28T06:09:55.438Z,34.60
2019-03-28T06:12:26.662Z,36.63
2019-03-28T06:14:57.514Z,32.87
2019-03-28T06:17:28.673Z,33.03
2019-03-28T06:19:59.814Z,35.20
2019-03-28T06:22:30.693Z,35.93
2019-03-28T06:25:05.550Z,31.17
2019-03-28T06:27:34.359Z,34.97
2019-03-28T06:30:05.933Z,41.10
2019-03-28T06:32:42.810Z,39.97
2019-03-28T06:35:09.599Z,46.37
2019-03-28T06:37:40.707Z,42.07
2019-03-28T06:40:12.094Z,46.33
2019-03-28T06:42:42.982Z,40.93
2019-03-28T06:45:13.919Z,35.37
2019-03-28T06:47:45.156Z,47.87
2019-03-28T06:50:16.300Z,48.17
2019-03-28T06:52:47.117Z,42.60
2019-03-28T06:55:18.304Z,43.43
2019-03-28T06:57:50.444Z,40.30
2019-03-28T07:00:21.693Z,41.70
2019-03-28T07:02:52.503Z,36.27
2019-03-28T07:05:23.450Z,30.53
2019-03-28T07:07:54.357Z,42.33
2019-03-28T07:10:25.292Z,32.97
2019-03-28T07:12:56.216Z,30.37
2019-03-28T07:15:27.331Z,25.57
2019-03-28T07:17:58.362Z,29.73
2019-03-28T07:20:29.236Z,32.20
2019-03-28T07:23:00.365Z,24.40
2019-03-28T07:25:31.496Z,24.70
2019-03-28T07:28:02.326Z,24.83
2019-03-28T07:30:33.447Z,30.43
2019-03-28T07:33:04.429Z,23.37
2019-03-28T07:35:35.633Z,24.67
2019-03-28T07:38:06.494Z,22.40
2019-03-28T07:40:37.352Z,23.63
2019-03-28T07:43:08.383Z,25.37
2019-03-28T07:45:39.525Z,27.90
2019-03-28T07:48:10.338Z,27.67
2019-03-28T07:50:42.695Z,28.10
2019-03-28T07:53:14.043Z,25.57
2019-03-28T07:55:44.975Z,22.53
2019-03-28T07:58:15.931Z,25.67
2019-03-28T08:00:48.107Z,21.00
2019-03-28T08:03:19.325Z,28.93
2019-03-28T08:05:50.418Z,23.10
2019-03-28T08:08:21.259Z,16.43
2019-03-28T08:10:52.228Z,21.20
2019-03-28T08:13:23.140Z,20.07
2019-03-28T08:15:54.299Z,19.00
2019-03-28T08:18:25.193Z,18.97
2019-03-28T08:20:57.407Z,17.00
2019-03-28T08:23:28.273Z,26.60
2019-03-28T08:25:59.110Z,18.37
2019-03-28T08:28:30.337Z,18.57
2019-03-28T08:31:01.359Z,19.20
2019-03-28T08:33:32.407Z,23.80
2019-03-28T08:36:04.083Z,19.27
2019-03-28T08:38:37.245Z,17.33
2019-03-28T08:41:08.361Z,17.00
2019-03-28T08:43:39.201Z,15.27
2019-03-28T08:46:10.045Z,15.63
2019-03-28T08:48:41.271Z,19.77
2019-03-28T08:51:12.158Z,31.20
2019-03-28T08:53:43.019Z,17.03
2019-03-28T08:56:14.099Z,22.63
2019-03-28T08:58:45.067Z,19.00
2019-03-28T09:01:15.897Z,30.43
2019-03-28T09:03:49.725Z,12.43
2019-03-28T09:06:20.138Z,12.53
2019-03-28T09:08:51.055Z,16.10
2019-03-28T09:11:22.314Z,16.53
2019-03-28T09:13:53.587Z,20.90
2019-03-28T09:16:24.421Z,16.07
2019-03-28T09:18:55.269Z,17.23
2019-03-28T09:21:26.219Z,12.07
2019-03-28T09:23:57.087Z,19.00
2019-03-28T09:26:27.978Z,21.23
2019-03-28T09:28:59.220Z,19.67
2019-03-28T09:31:30.765Z,23.03
2019-03-28T09:34:02.389Z,17.50
2019-03-28T09:36:33.575Z,16.17
2019-03-28T09:39:07.216Z,13.30
2019-03-28T09:41:38.491Z,16.57
2019-03-28T09:44:09.395Z,17.70
2019-03-28T09:46:40.275Z,13.00
2019-03-28T09:49:11.458Z,17.60
2019-03-28T09:51:42.263Z,12.63
2019-03-28T09:54:13.131Z,18.37
2019-03-28T09:56:44.324Z,33.93
2019-03-28T09:59:16.292Z,21.63
2019-03-28T10:01:47.264Z,13.07
2019-03-28T10:04:18.179Z,20.23
2019-03-28T10:06:49.302Z,12.87
2019-03-28T10:09:20.150Z,14.70
2019-03-28T10:11:51.250Z,11.27
2019-03-28T10:14:22.212Z,14.40
2019-03-28T10:16:53.355Z,19.53
2019-03-28T10:19:24.471Z,11.30
2019-03-28T10:21:55.420Z,20.10
2019-03-28T10:24:26.498Z,15.83
2019-03-28T10:26:57.437Z,18.40
2019-03-28T10:29:28.256Z,11.60
2019-03-28T10:31:59.541Z,15.90
2019-03-28T10:34:31.079Z,14.03
2019-03-28T10:37:01.968Z,15.17
2019-03-28T10:39:33.968Z,13.97
2019-03-28T10:42:05.355Z,11.20
2019-03-28T10:44:36.214Z,18.77
2019-03-28T10:47:07.364Z,14.03
2019-03-28T10:49:38.287Z,12.97
2019-03-28T10:52:11.898Z,17.03
2019-03-28T10:54:42.429Z,14.83
2019-03-28T10:57:23.937Z,14.00
2019-03-28T10:59:45.863Z,10.77
2019-03-28T11:02:16.853Z,15.23
2019-03-28T11:04:48.559Z,18.83
2019-03-28T11:07:19.603Z,11.43
2019-03-28T11:09:50.737Z,12.77
2019-03-28T11:12:21.565Z,17.63
2019-03-28T11:14:52.494Z,16.93
2019-03-28T11:17:23.653Z,12.53
2019-03-28T11:19:56.127Z,17.37
2019-03-28T11:22:27.482Z,14.50
2019-03-28T11:24:58.451Z,18.03
2019-03-28T11:27:29.366Z,10.70
2019-03-28T11:30:00.460Z,11.30
2019-03-28T11:32:31.326Z,10.97
2019-03-28T11:35:02.212Z,10.50
2019-03-28T11:37:33.262Z,13.43
2019-03-28T11:40:08.889Z,13.63
2019-03-28T11:42:37.826Z,9.30
2019-03-28T11:45:10.086Z,8.30
2019-03-28T11:47:41.302Z,13.43
2019-03-28T11:50:16.986Z,16.57
2019-03-28T11:52:46.674Z,10.00
2019-03-28T11:55:17.498Z,14.77
2019-03-28T11:57:49.897Z,9.33
2019-03-28T12:00:22.041Z,14.27
2019-03-28T12:02:52.997Z,11.40
2019-03-28T12:05:24.120Z,11.33
2019-03-28T12:07:55.345Z,17.73
2019-03-28T12:10:26.206Z,15.50
2019-03-28T12:12:57.384Z,16.70
2019-03-28T12:15:28.534Z,12.43
2019-03-28T12:17:59.512Z,10.83
2019-03-28T12:20:30.413Z,15.17
2019-03-28T12:23:01.269Z,14.10
2019-03-28T12:25:32.403Z,11.27
2019-03-28T12:28:03.673Z,8.33
2019-03-28T12:30:34.497Z,19.37
2019-03-28T12:33:05.667Z,9.73
2019-03-28T12:35:36.776Z,19.37
2019-03-28T12:38:07.616Z,10.87
2019-03-28T12:40:38.564Z,19.27
2019-03-28T12:43:09.457Z,6.97
2019-03-28T12:45:40.410Z,11.70
2019-03-28T12:48:11.485Z,9.27
2019-03-28T12:50:42.709Z,8.77
2019-03-28T12:53:13.570Z,15.33
2019-03-28T12:55:44.681Z,8.80
2019-03-28T12:58:15.654Z,15.53
2019-03-28T13:00:46.670Z,19.70
2019-03-28T13:03:18.027Z,17.07
2019-03-28T13:05:48.860Z,10.40
2019-03-28T13:08:20.172Z,11.80
2019-03-28T13:10:51.255Z,13.17
2019-03-28T13:13:22.116Z,14.50
2019-03-28T13:15:52.974Z,10.17
2019-03-28T13:18:24.029Z,12.33
2019-03-28T13:20:55.021Z,16.87
2019-03-28T13:23:25.891Z,11.33
2019-03-28T13:25:56.938Z,9.60
2019-03-28T13:28:28.736Z,21.93
2019-03-28T13:31:00.794Z,13.17
2019-03-28T13:33:31.899Z,11.00
2019-03-28T13:36:02.996Z,8.97
2019-03-28T13:38:33.994Z,8.27
2019-03-28T13:41:05.089Z,10.93
2019-03-28T13:43:36.274Z,10.37
2019-03-28T13:46:07.090Z,18.40
2019-03-28T13:48:37.912Z,13.80
2019-03-28T13:51:08.874Z,12.43
2019-03-28T13:53:40.134Z,16.87
2019-03-28T13:56:11.235Z,9.80
2019-03-28T13:58:42.330Z,13.17
2019-03-28T14:01:13.306Z,12.37
2019-03-28T14:03:44.437Z,8.57
2019-03-28T14:06:15.332Z,17.27
2019-03-28T14:08:46.267Z,9.50
2019-03-28T14:11:17.431Z,20.60
2019-03-28T14:13:48.654Z,14.70
2019-03-28T14:16:19.715Z,10.43
2019-03-28T14:18:50.621Z,26.40
2019-03-28T14:21:21.520Z,17.00
2019-03-28T14:23:52.338Z,11.10
2019-03-28T14:26:23.528Z,16.17
2019-03-28T14:28:54.625Z,17.03
2019-03-28T14:31:25.605Z,9.33
2019-03-28T14:33:56.508Z,8.37
2019-03-28T14:36:27.320Z,12.90
2019-03-28T14:38:58.664Z,15.40
2019-03-28T14:41:29.640Z,13.20
2019-03-28T14:44:00.490Z,12.00
2019-03-28T14:46:31.391Z,12.97
2019-03-28T14:49:02.400Z,10.10
2019-03-28T14:51:33.367Z,26.90
2019-03-28T14:54:04.602Z,17.80
2019-03-28T14:56:35.981Z,11.63
2019-03-28T14:59:08.363Z,21.33
2019-03-28T15:01:39.301Z,10.57
2019-03-28T15:04:10.298Z,10.90
2019-03-28T15:06:41.383Z,21.60
2019-03-28T15:09:12.921Z,15.47
2019-03-28T15:11:43.853Z,15.40
2019-03-28T15:14:15.914Z,27.40
2019-03-28T15:16:46.834Z,16.53
2019-03-28T15:19:17.694Z,21.47
2019-03-28T15:21:48.668Z,12.73
2019-03-28T15:24:19.873Z,11.97
2019-03-28T15:26:50.956Z,15.13
2019-03-28T15:29:21.783Z,12.33
2019-03-28T15:31:52.920Z,15.77
2019-03-28T15:34:24.806Z,14.37
2019-03-28T15:36:56.017Z,13.77
2019-03-28T15:39:27.014Z,17.47
2019-03-28T15:41:57.909Z,11.60
2019-03-28T15:44:28.896Z,7.70
2019-03-28T15:46:59.685Z,10.77
2019-03-28T15:49:30.529Z,16.90
2019-03-28T15:52:03.266Z,8.60
2019-03-28T15:54:34.553Z,13.97
2019-03-28T15:57:05.391Z,12.07
2019-03-28T15:59:36.582Z,19.57
2019-03-28T16:02:08.394Z,20.93
2019-03-28T16:04:40.192Z,15.80
2019-03-28T16:07:11.303Z,14.13
2019-03-28T16:09:42.615Z,14.70
2019-03-28T16:12:13.794Z,13.67
2019-03-28T16:14:44.725Z,20.27
2019-03-28T16:17:15.546Z,15.63
2019-03-28T16:19:46.503Z,12.17
2019-03-28T16:25:42.215Z,11.33
2019-03-28T16:28:13.431Z,16.90
2019-03-28T16:30:44.594Z,17.37
2019-03-28T16:33:15.431Z,10.93
2019-03-28T16:35:46.654Z,15.43
2019-03-28T16:38:17.767Z,14.27
2019-03-28T16:40:48.786Z,15.53
2019-03-28T16:43:20.032Z,12.67
2019-03-28T16:45:51.021Z,11.63
2019-03-28T16:48:21.989Z,10.43
2019-03-28T16:50:53.258Z,20.50
2019-03-28T16:53:59.823Z,15.03
2019-03-28T16:56:30.908Z,11.90
2019-03-28T16:59:02.076Z,12.23
2019-03-28T17:01:32.993Z,12.20
2019-03-28T17:04:03.997Z,14.70
2019-03-28T17:06:35.522Z,14.13
2019-03-28T17:09:07.998Z,14.70
2019-03-28T17:11:39.338Z,12.27
2019-03-28T17:14:10.367Z,13.30
2019-03-28T17:16:42.244Z,13.20
2019-03-28T17:19:13.618Z,13.43
2019-03-28T17:21:44.661Z,11.97
2019-03-28T17:24:16.641Z,13.87
2019-03-28T17:26:47.875Z,11.57
2019-03-28T17:29:19.756Z,14.27
2019-03-28T17:31:50.775Z,14.23
2019-03-28T17:34:34.168Z,15.03
2019-03-28T17:36:54.642Z,16.93
2019-03-28T17:39:25.626Z,17.23
2019-03-28T17:41:57.655Z,17.63
2019-03-28T17:44:28.565Z,12.43
2019-03-28T17:46:59.446Z,17.23
2019-03-28T17:49:30.370Z,25.40
2019-03-28T17:52:01.980Z,13.40
2019-03-28T17:54:32.824Z,20.37
2019-03-28T17:57:04.042Z,16.47
2019-03-28T17:59:35.210Z,15.53
2019-03-28T18:02:06.362Z,17.83
2019-03-28T18:04:48.141Z,17.73
2019-03-28T18:07:21.481Z,16.57
2019-03-28T18:09:52.509Z,14.43
2019-03-28T18:12:24.883Z,13.37
2019-03-28T18:14:59.348Z,19.63
2019-03-28T18:17:30.683Z,22.00
2019-03-28T18:20:02.044Z,10.87
2019-03-28T18:22:33.956Z,19.60
2019-03-28T18:25:05.009Z,20.07
2019-03-28T18:27:36.433Z,17.23
2019-03-28T18:30:07.971Z,17.53
2019-03-28T18:32:39.544Z,12.80
2019-03-28T18:35:11.087Z,16.80
2019-03-28T18:37:42.055Z,21.83
2019-03-28T18:40:13.381Z,21.17
2019-03-28T18:42:46.839Z,13.97
2019-03-28T18:45:20.953Z,9.97
2019-03-28T18:47:53.260Z,12.03
2019-03-28T18:50:24.813Z,17.53
2019-03-28T18:52:55.805Z,22.37
2019-03-28T18:55:26.867Z,14.47
2019-03-28T18:57:57.741Z,12.70
2019-03-28T19:00:28.834Z,19.53
2019-03-28T19:03:03.007Z,12.53
2019-03-28T19:05:34.145Z,14.93
2019-03-28T19:08:08.189Z,13.20
2019-03-28T19:10:42.225Z,20.13
2019-03-28T19:13:14.654Z,23.50
2019-03-28T19:15:49.807Z,17.20
2019-03-28T19:18:25.721Z,15.50
2019-03-28T19:20:59.238Z,17.77
2019-03-28T19:23:33.058Z,12.73
2019-03-28T19:26:10.993Z,16.20
2019-03-28T19:28:45.702Z,11.83
2019-03-28T19:31:19.838Z,15.23
2019-03-28T19:33:52.398Z,12.73
2019-03-28T19:36:24.151Z,13.83
2019-03-28T19:38:57.998Z,11.90
2019-03-28T19:41:32.231Z,13.77
2019-03-28T19:44:03.580Z,16.23
2019-03-28T19:46:34.608Z,15.80
2019-03-28T19:49:05.770Z,18.80
2019-03-28T19:51:36.623Z,22.17
2019-03-28T19:54:07.606Z,16.80
2019-03-28T19:56:38.709Z,17.77
2019-03-28T19:59:09.790Z,15.50
2019-03-28T20:01:41.081Z,17.97
2019-03-28T20:04:11.959Z,21.17
2019-03-28T20:06:42.968Z,14.73
2019-03-28T20:09:16.431Z,12.10
2019-03-28T20:11:47.030Z,16.10
2019-03-28T20:14:17.873Z,19.43
2019-03-28T20:16:48.786Z,26.23
2019-03-28T20:19:19.972Z,17.47
2019-03-28T20:21:50.869Z,26.60
2019-03-28T20:24:22.054Z,19.10
2019-03-28T20:26:54.321Z,22.37
2019-03-28T20:29:25.673Z,20.37
2019-03-28T20:31:56.503Z,26.97
2019-03-28T20:34:27.442Z,23.00
2019-03-28T20:36:58.616Z,26.70
2019-03-28T20:39:29.576Z,21.67
2019-03-28T20:42:00.455Z,30.03
2019-03-28T20:44:31.619Z,26.57
2019-03-28T20:47:02.538Z,22.53
2019-03-28T20:49:33.335Z,21.63
2019-03-28T20:52:04.471Z,22.67
2019-03-28T20:54:35.578Z,21.97
2019-03-28T20:57:06.556Z,31.77
2019-03-28T20:59:39.506Z,30.73
2019-03-28T21:02:10.379Z,28.77
2019-03-28T21:04:41.683Z,39.20
2019-03-28T21:07:14.127Z,30.73
2019-03-28T21:09:44.981Z,28.70
2019-03-28T21:12:16.151Z,34.13
2019-03-28T21:14:47.431Z,55.43
2019-03-28T21:17:18.240Z,45.97
2019-03-28T21:19:49.379Z,39.90
2019-03-28T21:22:20.941Z,48.60
2019-03-28T21:24:51.918Z,38.10
2019-03-28T21:27:22.942Z,37.80
2019-03-28T21:29:54.103Z,42.33
2019-03-28T21:32:24.980Z,33.80
2019-03-28T21:34:56.686Z,35.43
2019-03-28T21:37:27.698Z,37.10
2019-03-28T21:39:58.893Z,43.10
2019-03-28T21:42:30.041Z,42.83
2019-03-28T21:45:00.872Z,36.30
2019-03-28T21:47:31.925Z,39.50
2019-03-28T21:50:02.883Z,43.73
2019-03-28T21:52:33.733Z,36.93
2019-03-28T21:55:04.734Z,37.77
2019-03-28T21:57:35.973Z,34.90
2019-03-28T22:00:09.015Z,36.90
2019-03-28T22:02:40.060Z,33.83
2019-03-28T22:05:11.308Z,27.90
2019-03-28T22:07:42.383Z,26.17
2019-03-28T22:10:14.621Z,34.80
2019-03-28T22:12:45.821Z,30.90
2019-03-28T22:15:16.907Z,31.03
2019-03-28T22:17:47.735Z,31.87
2019-03-28T22:20:18.792Z,30.70
2019-03-28T22:22:50.046Z,27.57
2019-03-28T22:25:20.916Z,29.93
2019-03-28T22:27:51.823Z,26.23
2019-03-28T22:30:23.250Z,27.17
2019-03-28T22:32:54.646Z,24.20
2019-03-28T22:35:25.959Z,30.97
2019-03-28T22:37:57.291Z,27.40
2019-03-28T22:40:28.331Z,29.70
2019-03-28T22:42:59.170Z,34.47
2019-03-28T22:45:30.123Z,33.63
2019-03-28T22:48:10.746Z,28.90
2019-03-28T22:50:33.747Z,25.53
2019-03-28T22:53:04.700Z,27.40
2019-03-28T22:55:35.618Z,29.17
2019-03-28T22:58:08.095Z,29.17
2019-03-28T23:00:44.901Z,32.53
2019-03-28T23:03:18.610Z,34.70
2019-03-28T23:05:50.106Z,37.63
2019-03-28T23:08:21.423Z,39.83
2019-03-28T23:10:52.789Z,46.87
2019-03-28T23:13:23.901Z,38.40
2019-03-28T23:15:56.070Z,44.73
2019-03-28T23:18:27.190Z,46.03
2019-03-28T23:20:58.333Z,42.53
2019-03-28T23:23:30.609Z,35.57
2019-03-28T23:26:02.067Z,30.60
2019-03-28T23:28:33.511Z,34.70
2019-03-28T23:31:04.678Z,29.20
2019-03-28T23:33:36.231Z,22.77
2019-03-28T23:36:07.700Z,26.33
2019-03-28T23:38:38.827Z,26.83
2019-03-28T23:41:10.228Z,33.50
2019-03-28T23:43:41.424Z,21.97
2019-03-28T23:46:12.623Z,24.60
2019-03-28T23:48:43.738Z,21.93
2019-03-28T23:51:14.784Z,31.33
2019-03-28T23:53:46.136Z,25.47
2019-03-28T23:56:19.603Z,33.60
2019-03-28T23:58:50.754Z,27.80
